createdAt,value
2019-03-01T00:00:13.190Z,76.42
2019-03-01T00:02:45.862Z,72.10
2019-03-01T00:05:50.319Z,63.20
2019-03-01T00:08:41.408Z,70.55
2019-03-01T00:11:42.700Z,93.50
2019-03-01T00:14:42.854Z,80.15
2019-03-01T00:17:42.598Z,67.17
2019-03-01T00:20:46.790Z,81.15
2019-03-01T00:23:54.598Z,70.08
2019-03-01T00:27:15.657Z,67.58
2019-03-01T00:30:13.930Z,71.90
2019-03-01T00:33:08.930Z,66.25
2019-03-01T00:36:32.850Z,76.92
2019-03-01T00:39:54.613Z,71.28
2019-03-01T00:42:52.828Z,71.00
2019-03-01T00:45:24.229Z,67.30
2019-03-01T00:47:55.470Z,77.72
2019-03-01T00:50:26.713Z,68.20
2019-03-01T00:52:58.113Z,69.83
2019-03-01T00:55:29.568Z,73.77
2019-03-01T00:58:00.958Z,59.93
2019-03-01T01:00:35.750Z,76.72
2019-03-01T01:03:07.279Z,66.12
2019-03-01T01:05:38.622Z,71.07
2019-03-01T01:08:09.953Z,57.97
2019-03-01T01:10:41.350Z,62.53
2019-03-01T01:13:12.759Z,58.68
2019-03-01T01:15:44.325Z,54.27
2019-03-01T01:18:15.904Z,67.53
2019-03-01T01:20:48.101Z,70.32
2019-03-01T01:23:19.440Z,62.23
2019-03-01T01:25:50.738Z,69.93
2019-03-01T01:28:22.111Z,64.73
2019-03-01T01:30:53.640Z,65.43
2019-03-01T01:33:25.070Z,66.90
2019-03-01T01:35:57.099Z,68.92
2019-03-01T01:38:28.619Z,57.60
2019-03-01T01:40:59.738Z,94.50
2019-03-01T01:43:31.188Z,60.12
2019-03-01T01:46:02.451Z,63.55
2019-03-01T01:48:33.858Z,69.25
2019-03-01T01:51:05.442Z,67.62
2019-03-01T01:53:36.834Z,69.92
2019-03-01T01:56:08.190Z,66.00
2019-03-01T01:58:39.613Z,68.05
2019-03-01T02:01:10.958Z,72.20
2019-03-01T02:03:42.212Z,69.83
2019-03-01T02:06:13.633Z,70.63
2019-03-01T02:08:44.940Z,72.15
2019-03-01T02:11:16.309Z,62.30
2019-03-01T02:13:47.848Z,83.87
2019-03-01T02:16:19.148Z,68.07
2019-03-01T02:18:57.416Z,84.43
2019-03-01T02:21:23.428Z,68.10
2019-03-01T02:23:54.978Z,72.87
2019-03-01T02:26:26.168Z,61.77
2019-03-01T02:28:57.703Z,66.10
2019-03-01T02:31:29.093Z,65.10
2019-03-01T02:34:00.310Z,74.05
2019-03-01T02:39:04.211Z,76.90
2019-03-01T02:41:36.937Z,74.30
2019-03-01T02:44:09.102Z,66.35
2019-03-01T02:49:10.558Z,63.92
2019-03-01T02:51:42.067Z,70.25
2019-03-01T02:54:13.391Z,67.05
2019-03-01T02:56:44.820Z,64.87
2019-03-01T02:59:16.001Z,66.28
2019-03-01T03:01:47.439Z,73.22
2019-03-01T03:04:18.699Z,66.67
2019-03-01T03:07:05.062Z,66.63
2019-03-01T03:09:36.323Z,64.12
2019-03-01T03:12:07.671Z,53.77
2019-03-01T03:14:39.005Z,64.47
2019-03-01T03:17:10.336Z,55.90
2019-03-01T03:19:41.580Z,55.85
2019-03-01T03:22:12.872Z,58.60
2019-03-01T03:24:44.078Z,52.13
2019-03-01T03:27:15.852Z,51.83
2019-03-01T03:29:47.248Z,56.48
2019-03-01T03:32:18.522Z,58.48
2019-03-01T03:34:49.873Z,54.13
2019-03-01T03:37:21.152Z,53.10
2019-03-01T03:39:52.571Z,50.97
2019-03-01T03:42:24.292Z,61.23
2019-03-01T03:44:55.612Z,56.65
2019-03-01T03:47:27.121Z,57.53
2019-03-01T03:50:00.021Z,44.48
2019-03-01T03:52:31.428Z,57.23
2019-03-01T03:55:02.630Z,50.25
2019-03-01T03:57:34.071Z,56.17
2019-03-01T04:00:06.106Z,52.13
2019-03-01T04:05:08.119Z,50.15
2019-03-01T04:07:39.548Z,53.50
2019-03-01T04:10:11.342Z,63.35
2019-03-01T04:12:42.693Z,48.98
2019-03-01T04:15:14.108Z,54.03
2019-03-01T04:17:45.401Z,45.88
2019-03-01T04:20:17.852Z,64.07
2019-03-01T04:22:49.120Z,47.67
2019-03-01T04:25:20.475Z,71.53
2019-03-01T04:27:53.401Z,57.43
2019-03-01T04:30:25.002Z,60.48
2019-03-01T04:32:56.309Z,49.93
2019-03-01T04:35:27.501Z,61.13
2019-03-01T04:37:58.858Z,61.25
2019-03-01T04:40:30.078Z,72.80
2019-03-01T04:43:01.421Z,56.75
2019-03-01T04:45:32.661Z,66.97
2019-03-01T04:48:04.110Z,57.80
2019-03-01T04:50:35.520Z,56.10
2019-03-01T04:53:06.789Z,49.80
2019-03-01T04:55:38.314Z,63.47
2019-03-01T04:58:09.607Z,63.25
2019-03-01T05:00:40.950Z,61.73
2019-03-01T05:03:12.390Z,56.60
2019-03-01T05:05:43.902Z,69.15
2019-03-01T05:08:15.312Z,62.95
2019-03-01T05:10:46.640Z,71.77
2019-03-01T05:13:17.933Z,62.20
2019-03-01T05:15:49.190Z,63.53
2019-03-01T05:18:20.479Z,68.70
2019-03-01T05:20:52.121Z,69.05
2019-03-01T05:23:23.406Z,61.02
2019-03-01T05:25:54.618Z,64.97
2019-03-01T05:28:25.970Z,60.50
2019-03-01T05:30:57.410Z,62.00
2019-03-01T05:33:28.528Z,62.93
2019-03-01T05:35:59.818Z,66.77
2019-03-01T05:38:34.336Z,62.30
2019-03-01T05:41:05.688Z,66.35
2019-03-01T05:43:36.950Z,65.70
2019-03-01T05:46:08.470Z,56.67
2019-03-01T05:48:39.781Z,65.83
2019-03-01T05:51:11.300Z,68.02
2019-03-01T05:53:42.730Z,66.85
2019-03-01T05:56:14.739Z,66.70
2019-03-01T05:59:07.187Z,57.98
2019-03-01T06:04:36.860Z,54.60
2019-03-01T06:07:48.368Z,57.08
2019-03-01T06:10:56.125Z,66.00
2019-03-01T06:14:18.630Z,56.95
2019-03-01T06:17:26.403Z,63.78
2019-03-01T06:20:36.508Z,65.47
2019-03-01T06:24:03.250Z,50.25
2019-03-01T06:27:17.550Z,58.10
2019-03-01T06:30:11.798Z,58.13
2019-03-01T06:33:41.730Z,56.73
2019-03-01T06:36:56.441Z,44.05
2019-03-01T06:40:15.503Z,63.75
2019-03-01T06:43:13.218Z,48.92
2019-03-01T06:46:15.400Z,62.95
2019-03-01T06:49:05.451Z,56.28
2019-03-01T06:51:38.020Z,67.58
2019-03-01T06:54:09.320Z,64.17
2019-03-01T06:56:42.280Z,53.10
2019-03-01T06:59:13.521Z,68.12
2019-03-01T07:01:46.411Z,72.45
2019-03-01T07:04:21.134Z,66.45
2019-03-01T07:06:52.318Z,61.18
2019-03-01T07:09:23.527Z,50.40
2019-03-01T07:11:54.768Z,63.13
2019-03-01T07:16:58.610Z,85.72
2019-03-01T07:19:30.063Z,55.58
2019-03-01T07:22:01.410Z,58.17
2019-03-01T07:24:33.871Z,52.90
2019-03-01T07:27:05.101Z,63.63
2019-03-01T07:29:37.064Z,55.40
2019-03-01T07:32:08.511Z,54.70
2019-03-01T07:34:39.830Z,58.13
2019-03-01T07:37:12.038Z,51.48
2019-03-01T07:39:43.941Z,69.87
2019-03-01T07:42:15.164Z,67.25
2019-03-01T07:44:46.360Z,59.67
2019-03-01T07:47:17.600Z,52.38
2019-03-01T07:49:48.863Z,62.63
2019-03-01T07:52:20.471Z,47.88
2019-03-01T07:54:52.935Z,50.38
2019-03-01T07:57:25.646Z,56.85
2019-03-01T07:59:57.233Z,62.87
2019-03-01T08:02:28.396Z,58.73
2019-03-01T08:05:00.013Z,49.48
2019-03-01T08:07:32.544Z,91.57
2019-03-01T08:10:03.921Z,37.70
2019-03-01T08:12:38.608Z,62.35
2019-03-01T08:15:10.112Z,58.00
2019-03-01T08:17:42.581Z,45.88
2019-03-01T08:20:15.313Z,49.73
2019-03-01T08:22:49.060Z,46.68
2019-03-01T08:25:23.717Z,41.95
2019-03-01T08:27:53.045Z,41.80
2019-03-01T08:30:24.274Z,43.00
2019-03-01T08:32:55.488Z,34.93
2019-03-01T08:35:28.271Z,39.13
2019-03-01T08:37:59.731Z,33.65
2019-03-01T08:40:30.891Z,39.92
2019-03-01T08:43:02.192Z,34.78
2019-03-01T08:45:33.684Z,35.23
2019-03-01T08:48:05.030Z,35.75
2019-03-01T08:50:37.512Z,39.85
2019-03-01T08:53:11.451Z,38.73
2019-03-01T08:55:42.562Z,35.80
2019-03-01T08:58:13.850Z,33.13
2019-03-01T09:00:45.739Z,33.15
2019-03-01T09:03:23.138Z,31.10
2019-03-01T09:05:55.740Z,29.98
2019-03-01T09:08:28.011Z,28.67
2019-03-01T09:10:59.803Z,27.57
2019-03-01T09:13:31.588Z,31.15
2019-03-01T09:16:03.387Z,29.50
2019-03-01T09:18:34.882Z,29.90
2019-03-01T09:21:12.338Z,33.85
2019-03-01T09:23:39.904Z,32.13
2019-03-01T09:26:11.371Z,27.85
2019-03-01T09:28:42.640Z,26.23
2019-03-01T09:33:45.080Z,23.55
2019-03-01T09:36:23.412Z,27.32
2019-03-01T09:38:54.791Z,24.92
2019-03-01T09:41:26.190Z,24.70
2019-03-01T09:43:59.618Z,27.17
2019-03-01T09:46:30.449Z,28.85
2019-03-01T09:49:01.741Z,29.70
2019-03-01T09:51:33.150Z,24.35
2019-03-01T09:54:06.436Z,25.05
2019-03-01T09:56:37.831Z,24.35
2019-03-01T09:59:09.198Z,28.43
2019-03-01T10:01:40.630Z,33.80
2019-03-01T10:04:11.944Z,29.02
2019-03-01T10:06:43.251Z,28.07
2019-03-01T10:09:14.317Z,29.63
2019-03-01T10:11:45.650Z,31.17
2019-03-01T10:14:16.869Z,25.97
2019-03-01T10:16:48.265Z,27.55
2019-03-01T10:19:19.909Z,32.75
2019-03-01T10:21:51.178Z,30.07
2019-03-01T10:24:22.448Z,30.57
2019-03-01T10:26:54.191Z,31.33
2019-03-01T10:29:25.461Z,29.48
2019-03-01T10:31:56.608Z,25.97
2019-03-01T10:34:27.781Z,25.10
2019-03-01T10:36:58.968Z,24.82
2019-03-01T10:39:30.153Z,27.93
2019-03-01T10:42:01.391Z,28.75
2019-03-01T10:47:03.478Z,28.15
2019-03-01T10:49:34.572Z,23.57
2019-03-01T10:52:05.778Z,27.62
2019-03-01T10:54:37.042Z,26.33
2019-03-01T10:57:08.331Z,38.17
2019-03-01T10:59:39.648Z,22.93
2019-03-01T11:02:11.260Z,26.63
2019-03-01T11:04:42.600Z,25.12
2019-03-01T11:07:13.789Z,24.55
2019-03-01T11:09:45.119Z,25.30
2019-03-01T11:12:16.428Z,23.07
2019-03-01T11:14:47.600Z,27.67
2019-03-01T11:17:18.860Z,33.55
2019-03-01T11:19:50.030Z,24.18
2019-03-01T11:22:21.273Z,27.50
2019-03-01T11:24:52.548Z,24.00
2019-03-01T11:27:24.118Z,28.57
2019-03-01T11:29:55.378Z,25.32
2019-03-01T11:32:26.618Z,30.17
2019-03-01T11:34:57.844Z,30.67
2019-03-01T11:37:29.191Z,24.95
2019-03-01T11:40:00.378Z,30.40
2019-03-01T11:42:31.638Z,30.08
2019-03-01T11:45:02.832Z,30.77
2019-03-01T11:47:34.289Z,24.05
2019-03-01T11:50:06.609Z,27.55
2019-03-01T11:52:38.048Z,25.30
2019-03-01T11:55:09.261Z,26.87
2019-03-01T11:57:40.519Z,28.65
2019-03-01T12:00:15.011Z,25.80
2019-03-01T12:02:46.723Z,28.30
2019-03-01T12:05:17.938Z,28.52
2019-03-01T12:07:49.130Z,22.82
2019-03-01T12:10:21.899Z,23.73
2019-03-01T12:12:53.214Z,23.65
2019-03-01T12:15:24.630Z,27.03
2019-03-01T12:17:55.873Z,24.80
2019-03-01T12:20:27.569Z,30.60
2019-03-01T12:22:58.951Z,30.05
2019-03-01T12:25:30.440Z,30.60
2019-03-01T12:28:01.678Z,25.92
2019-03-01T12:30:33.520Z,28.00
2019-03-01T12:33:04.823Z,29.10
2019-03-01T12:35:36.260Z,32.00
2019-03-01T12:38:07.542Z,29.60
2019-03-01T12:40:38.890Z,33.45
2019-03-01T12:43:10.039Z,27.17
2019-03-01T12:45:41.490Z,33.70
2019-03-01T12:48:12.778Z,32.17
2019-03-01T12:50:44.139Z,29.57
2019-03-01T12:53:15.441Z,28.92
2019-03-01T12:55:46.750Z,32.55
2019-03-01T12:58:19.652Z,32.33
2019-03-01T13:00:51.160Z,31.15
2019-03-01T13:03:22.637Z,24.80
2019-03-01T13:05:53.919Z,24.87
2019-03-01T13:08:25.248Z,29.60
2019-03-01T13:10:56.631Z,25.17
2019-03-01T13:13:27.962Z,29.53
2019-03-01T13:15:59.281Z,34.20
2019-03-01T13:18:30.631Z,28.33
2019-03-01T13:21:03.488Z,27.22
2019-03-01T13:23:37.523Z,28.40
2019-03-01T13:26:08.138Z,25.97
2019-03-01T13:28:39.481Z,31.30
2019-03-01T13:31:11.480Z,27.40
2019-03-01T13:33:43.520Z,30.82
2019-03-01T13:36:15.109Z,33.20
2019-03-01T13:38:46.400Z,32.20
2019-03-01T13:41:19.290Z,32.48
2019-03-01T13:43:50.370Z,35.43
2019-03-01T13:46:21.711Z,28.80
2019-03-01T13:48:54.138Z,28.97
2019-03-01T13:51:25.979Z,30.57
2019-03-01T13:53:57.510Z,32.98
2019-03-01T13:56:28.941Z,30.23
2019-03-01T13:59:02.899Z,35.13
2019-03-01T14:01:34.358Z,30.95
2019-03-01T14:04:05.603Z,33.83
2019-03-01T14:06:37.038Z,30.77
2019-03-01T14:09:14.601Z,22.90
2019-03-01T14:11:45.867Z,28.65
2019-03-01T14:14:17.372Z,30.27
2019-03-01T14:16:48.831Z,31.23
2019-03-01T14:19:20.252Z,30.90
2019-03-01T14:21:51.521Z,27.97
2019-03-01T14:26:55.831Z,25.20
2019-03-01T14:29:27.201Z,27.35
2019-03-01T14:31:58.603Z,30.00
2019-03-01T14:34:29.892Z,23.50
2019-03-01T14:37:01.121Z,24.35
2019-03-01T14:39:32.573Z,23.20
2019-03-01T14:42:07.071Z,21.80
2019-03-01T14:44:38.178Z,28.30
2019-03-01T14:47:09.478Z,21.15
2019-03-01T14:52:11.950Z,28.27
2019-03-01T14:54:45.120Z,20.70
2019-03-01T14:57:21.752Z,26.77
2019-03-01T15:00:31.933Z,21.60
2019-03-01T15:03:38.022Z,27.37
2019-03-01T15:06:10.580Z,21.95
2019-03-01T15:08:44.153Z,21.12
2019-03-01T15:11:18.220Z,25.32
2019-03-01T15:13:50.709Z,24.45
2019-03-01T15:16:21.996Z,22.02
2019-03-01T15:18:53.524Z,24.47
2019-03-01T15:21:25.130Z,29.72
2019-03-01T15:24:00.131Z,24.33
2019-03-01T15:26:29.432Z,25.97
2019-03-01T15:29:00.758Z,18.67
2019-03-01T15:31:32.180Z,21.73
2019-03-01T15:34:03.348Z,21.90
2019-03-01T15:36:34.591Z,21.12
2019-03-01T15:39:08.472Z,21.93
2019-03-01T15:41:42.143Z,22.17
2019-03-01T15:44:15.291Z,19.30
2019-03-01T15:46:49.754Z,21.50
2019-03-01T15:49:23.623Z,23.57
2019-03-01T15:51:53.270Z,20.17
2019-03-01T15:56:55.789Z,18.92
2019-03-01T15:59:27.243Z,19.92
2019-03-01T16:01:58.720Z,15.90
2019-03-01T16:04:30.477Z,23.00
2019-03-01T16:07:03.380Z,19.50
2019-03-01T16:09:34.620Z,17.60
2019-03-01T16:12:05.808Z,21.17
2019-03-01T16:14:37.130Z,19.17
2019-03-01T16:17:09.541Z,19.80
2019-03-01T16:19:41.822Z,23.77
2019-03-01T16:24:45.006Z,24.92
2019-03-01T16:27:16.953Z,26.85
2019-03-01T16:29:48.258Z,28.10
2019-03-01T16:32:19.749Z,27.27
2019-03-01T16:34:52.654Z,28.38
2019-03-01T16:37:26.061Z,27.55
2019-03-01T16:40:00.110Z,29.67
2019-03-01T16:42:38.227Z,30.77
2019-03-01T16:45:04.130Z,38.63
2019-03-01T16:47:38.231Z,37.33
2019-03-01T16:50:10.788Z,40.20
2019-03-01T16:52:42.581Z,37.80
2019-03-01T16:55:15.751Z,38.40
2019-03-01T16:57:48.617Z,37.10
2019-03-01T17:00:20.411Z,33.53
2019-03-01T17:02:51.920Z,36.13
2019-03-01T17:05:26.504Z,35.15
2019-03-01T17:07:59.673Z,41.18
2019-03-01T17:10:31.239Z,38.08
2019-03-01T17:13:03.181Z,36.65
2019-03-01T17:15:34.670Z,38.15
2019-03-01T17:18:11.105Z,35.40
2019-03-01T17:20:39.871Z,35.60
2019-03-01T17:23:15.540Z,38.70
2019-03-01T17:25:47.656Z,39.65
2019-03-01T17:30:51.778Z,55.07
2019-03-01T17:33:23.181Z,48.00
2019-03-01T17:35:54.471Z,59.93
2019-03-01T17:38:25.938Z,44.45
2019-03-01T17:40:57.710Z,54.93
2019-03-01T17:43:29.633Z,46.88
2019-03-01T17:46:01.860Z,52.08
2019-03-01T17:48:33.138Z,50.43
2019-03-01T17:51:04.430Z,48.40
2019-03-01T17:53:35.548Z,51.55
2019-03-01T17:56:06.828Z,55.10
2019-03-01T17:58:38.121Z,48.53
2019-03-01T18:01:09.428Z,48.00
2019-03-01T18:03:40.732Z,45.83
2019-03-01T18:06:13.003Z,30.83
2019-03-01T18:08:44.930Z,38.20
2019-03-01T18:11:16.198Z,37.45
2019-03-01T18:13:47.450Z,44.03
2019-03-01T18:16:22.121Z,39.30
2019-03-01T18:18:52.968Z,42.50
2019-03-01T18:21:24.301Z,41.98
2019-03-01T18:23:55.588Z,34.73
2019-03-01T18:26:26.971Z,32.23
2019-03-01T18:29:00.947Z,23.90
2019-03-01T18:31:34.473Z,28.50
2019-03-01T18:34:04.301Z,23.27
2019-03-01T18:36:35.734Z,34.30
2019-03-01T18:39:13.055Z,24.30
2019-03-01T18:41:44.451Z,32.75
2019-03-01T18:44:15.610Z,38.33
2019-03-01T18:46:47.710Z,30.00
2019-03-01T18:49:19.774Z,24.77
2019-03-01T18:51:52.091Z,35.38
2019-03-01T18:54:23.348Z,30.57
2019-03-01T18:56:54.542Z,38.15
2019-03-01T18:59:26.543Z,37.13
2019-03-01T19:01:57.899Z,34.92
2019-03-01T19:04:30.049Z,38.47
2019-03-01T19:07:01.338Z,46.20
2019-03-01T19:09:32.699Z,27.73
2019-03-01T19:12:04.150Z,35.88
2019-03-01T19:14:39.027Z,23.87
2019-03-01T19:17:08.520Z,42.48
2019-03-01T19:19:39.611Z,29.92
2019-03-01T19:22:11.148Z,31.27
2019-03-01T19:24:43.304Z,39.73
2019-03-01T19:27:15.797Z,25.97
2019-03-01T19:29:47.148Z,21.23
2019-03-01T19:32:18.541Z,27.10
2019-03-01T19:34:52.748Z,33.75
2019-03-01T19:37:22.888Z,34.67
2019-03-01T19:39:54.504Z,50.37
2019-03-01T19:42:25.833Z,31.62
2019-03-01T19:44:57.019Z,40.67
2019-03-01T19:47:29.541Z,33.48
2019-03-01T19:50:00.838Z,63.28
2019-03-01T19:52:32.330Z,58.85
2019-03-01T19:55:03.569Z,31.07
2019-03-01T19:57:36.370Z,29.85
2019-03-01T20:00:12.758Z,31.02
2019-03-01T20:02:45.380Z,39.00
2019-03-01T20:05:18.328Z,39.55
2019-03-01T20:07:51.736Z,37.38
2019-03-01T20:10:24.790Z,46.70
2019-03-01T20:12:56.221Z,55.95
2019-03-01T20:15:28.177Z,44.63
2019-03-01T20:17:59.723Z,45.83
2019-03-01T20:20:33.505Z,36.23
2019-03-01T20:23:04.080Z,33.18
2019-03-01T20:25:35.448Z,41.87
2019-03-01T20:28:06.691Z,35.50
2019-03-01T20:30:38.160Z,33.37
2019-03-01T20:33:09.471Z,41.18
2019-03-01T20:35:40.853Z,37.70
2019-03-01T20:38:12.293Z,35.90
2019-03-01T20:40:44.584Z,33.60
2019-03-01T20:43:16.348Z,28.47
2019-03-01T20:45:47.681Z,39.85
2019-03-01T20:48:19.149Z,41.40
2019-03-01T20:50:51.056Z,60.23
2019-03-01T20:53:23.617Z,48.28
2019-03-01T20:55:55.018Z,58.52
2019-03-01T20:58:26.308Z,38.40
2019-03-01T21:00:58.871Z,75.57
2019-03-01T21:03:30.728Z,48.80
2019-03-01T21:06:04.668Z,38.48
2019-03-01T21:08:35.424Z,43.52
2019-03-01T21:13:37.498Z,37.67
2019-03-01T21:16:11.773Z,42.88
2019-03-01T21:18:43.632Z,42.08
2019-03-01T21:21:15.189Z,58.87
2019-03-01T21:23:51.026Z,35.88
2019-03-01T21:26:21.527Z,51.95
2019-03-01T21:28:52.770Z,57.73
2019-03-01T21:31:24.139Z,54.37
2019-03-01T21:33:55.464Z,39.85
2019-03-01T21:36:27.125Z,59.88
2019-03-01T21:38:58.411Z,49.15
2019-03-01T21:41:29.670Z,51.20
2019-03-01T21:44:01.308Z,42.67
2019-03-01T21:46:34.152Z,35.90
2019-03-01T21:49:06.189Z,47.17
2019-03-01T21:51:37.450Z,38.98
2019-03-01T21:54:08.710Z,35.27
2019-03-01T21:56:55.471Z,44.13
2019-03-01T21:59:13.690Z,38.63
2019-03-01T22:01:46.200Z,47.85
2019-03-01T22:04:17.572Z,71.72
2019-03-01T22:06:48.958Z,59.60
2019-03-01T22:09:20.714Z,65.20
2019-03-01T22:11:53.455Z,63.92
2019-03-01T22:14:24.820Z,58.17
2019-03-01T22:16:56.030Z,95.87
2019-03-01T22:19:30.482Z,54.03
2019-03-01T22:22:00.358Z,146.50
2019-03-01T22:24:31.778Z,83.33
2019-03-01T22:27:02.948Z,106.17
2019-03-01T22:29:34.280Z,75.00
2019-03-01T22:32:07.298Z,64.70
2019-03-01T22:34:38.809Z,57.08
2019-03-01T22:37:09.850Z,71.20
2019-03-01T22:39:42.810Z,42.75
2019-03-01T22:42:15.111Z,48.73
2019-03-01T22:44:46.629Z,87.92
2019-03-01T22:47:18.000Z,51.35
2019-03-01T22:49:49.558Z,57.23
2019-03-01T22:52:20.881Z,45.30
2019-03-01T22:54:52.531Z,46.13
2019-03-01T22:57:25.961Z,54.60
2019-03-01T22:59:57.050Z,43.05
2019-03-01T23:02:30.082Z,48.15
2019-03-01T23:05:03.864Z,45.92
2019-03-01T23:07:34.410Z,46.48
2019-03-01T23:10:05.910Z,48.53
2019-03-01T23:12:40.545Z,57.50
2019-03-01T23:15:12.148Z,43.45
2019-03-01T23:17:43.409Z,50.45
2019-03-01T23:20:14.728Z,54.70
2019-03-01T23:22:46.994Z,59.88
2019-03-01T23:25:18.348Z,57.73
2019-03-01T23:27:50.399Z,53.15
2019-03-01T23:30:21.729Z,64.92
2019-03-01T23:32:55.717Z,65.12
2019-03-01T23:35:26.130Z,77.62
2019-03-01T23:37:57.410Z,72.53
2019-03-01T23:40:28.570Z,57.20
2019-03-01T23:42:59.710Z,59.60
2019-03-01T23:45:30.860Z,53.02
2019-03-01T23:48:02.151Z,64.63
2019-03-01T23:50:34.946Z,53.57
2019-03-01T23:53:06.350Z,110.32
2019-03-01T23:55:37.719Z,62.45
2019-03-01T23:58:08.950Z,81.57
